createdAt,value
2022-10-14T00:01:13.106Z,13.30
2022-10-14T00:03:43.148Z,13.30
2022-10-14T00:06:13.152Z,13.30
2022-10-14T00:08:42.346Z,13.20
2022-10-14T00:11:14.110Z,13.30
2022-10-14T00:13:42.241Z,13.30
2022-10-14T00:16:18.376Z,13.30
2022-10-14T00:18:47.956Z,13.20
2022-10-14T00:21:16.644Z,13.20
2022-10-14T00:23:44.906Z,13.10
2022-10-14T00:26:18.487Z,13.10
2022-10-14T00:28:46.796Z,13.00
2022-10-14T00:31:15.478Z,13.10
2022-10-14T00:33:43.862Z,13.10
2022-10-14T00:36:15.491Z,13.10
2022-10-14T00:38:45.362Z,13.20
2022-10-14T00:41:15.296Z,13.20
2022-10-14T00:43:55.939Z,13.10
2022-10-14T00:46:24.597Z,13.10
2022-10-14T00:48:53.266Z,13.10
2022-10-14T00:51:23.062Z,13.10
2022-10-14T00:53:51.893Z,13.00
2022-10-14T00:56:25.555Z,13.00
2022-10-14T00:58:54.509Z,12.90
2022-10-14T01:01:22.851Z,12.80
2022-10-14T01:03:50.998Z,12.90
2022-10-14T01:06:31.933Z,12.90
2022-10-14T01:09:05.021Z,12.80
2022-10-14T01:12:16.195Z,12.90
2022-10-14T01:14:53.855Z,12.90
2022-10-14T01:17:36.033Z,12.90
2022-10-14T01:20:43.634Z,12.90
2022-10-14T01:23:42.427Z,12.90
2022-10-14T01:26:30.438Z,12.90
2022-10-14T01:29:12.888Z,12.90
2022-10-14T01:31:47.493Z,13.00
2022-10-14T01:34:21.695Z,12.90
2022-10-14T01:36:53.776Z,13.00
2022-10-14T01:39:26.288Z,13.00
2022-10-14T01:41:58.569Z,13.10
2022-10-14T01:44:30.181Z,13.00
2022-10-14T01:47:02.282Z,13.00
2022-10-14T01:49:36.656Z,13.10
2022-10-14T01:52:10.114Z,13.10
2022-10-14T01:54:42.612Z,13.10
2022-10-14T01:57:15.282Z,13.10
2022-10-14T01:59:45.439Z,13.10
2022-10-14T02:02:15.236Z,13.00
2022-10-14T02:04:43.385Z,12.90
2022-10-14T02:07:16.490Z,13.00
2022-10-14T02:09:54.224Z,12.90
2022-10-14T02:12:35.049Z,12.90
2022-10-14T02:15:12.570Z,13.00
2022-10-14T02:17:50.115Z,12.90
2022-10-14T02:20:30.338Z,12.90
2022-10-14T02:23:01.305Z,12.90
2022-10-14T02:25:32.796Z,12.90
2022-10-14T02:28:02.965Z,12.90
2022-10-14T02:30:33.949Z,12.90
2022-10-14T02:33:05.462Z,12.90
2022-10-14T02:35:35.702Z,12.90
2022-10-14T02:38:04.795Z,12.90
2022-10-14T02:40:38.712Z,12.90
2022-10-14T02:43:10.074Z,12.90
2022-10-14T02:45:39.101Z,12.90
2022-10-14T02:48:09.259Z,13.00
2022-10-14T02:50:37.717Z,13.00
2022-10-14T02:53:06.087Z,13.00
2022-10-14T02:55:34.197Z,13.00
2022-10-14T02:58:02.293Z,13.00
2022-10-14T03:00:30.425Z,13.10
2022-10-14T03:02:58.503Z,13.10
2022-10-14T03:05:28.110Z,13.10
2022-10-14T03:07:56.474Z,13.10
2022-10-14T03:10:24.653Z,13.20
2022-10-14T03:12:52.890Z,13.20
2022-10-14T03:15:20.990Z,13.20
2022-10-14T03:17:49.100Z,13.10
2022-10-14T03:20:17.491Z,13.10
2022-10-14T03:22:46.957Z,13.10
2022-10-14T03:25:15.135Z,13.10
2022-10-14T03:27:43.555Z,13.10
2022-10-14T03:30:12.359Z,13.10
2022-10-14T03:32:40.420Z,13.20
2022-10-14T03:35:10.368Z,13.30
2022-10-14T03:37:38.479Z,13.20
2022-10-14T03:40:11.827Z,13.20
2022-10-14T03:42:40.011Z,13.20
2022-10-14T03:45:09.341Z,13.20
2022-10-14T03:47:37.488Z,13.20
2022-10-14T03:50:06.815Z,13.20
2022-10-14T03:52:34.909Z,13.20
2022-10-14T03:55:03.186Z,13.20
2022-10-14T03:57:32.755Z,13.20
2022-10-14T04:00:00.898Z,13.30
2022-10-14T04:02:29.006Z,13.30
2022-10-14T04:05:00.753Z,13.30
2022-10-14T04:07:29.352Z,13.30
2022-10-14T04:09:57.477Z,13.30
2022-10-14T04:12:25.609Z,13.30
2022-10-14T04:14:56.857Z,13.30
2022-10-14T04:17:25.134Z,13.30
2022-10-14T04:19:53.584Z,13.20
2022-10-14T04:22:23.276Z,13.20
2022-10-14T04:24:51.887Z,13.20
2022-10-14T04:27:20.071Z,13.20
2022-10-14T04:29:48.192Z,13.30
2022-10-14T04:32:17.843Z,13.30
2022-10-14T04:34:45.943Z,13.30
2022-10-14T04:37:14.057Z,13.30
2022-10-14T04:39:42.256Z,13.30
2022-10-14T04:42:10.409Z,13.30
2022-10-14T04:44:38.535Z,13.30
2022-10-14T04:47:06.754Z,13.30
2022-10-14T04:49:36.253Z,13.30
2022-10-14T04:52:04.361Z,13.30
2022-10-14T04:54:32.509Z,13.30
2022-10-14T04:57:00.644Z,13.30
2022-10-14T04:59:28.755Z,13.30
2022-10-14T05:01:57.014Z,13.30
2022-10-14T05:04:25.217Z,13.30
2022-10-14T05:06:54.673Z,13.30
2022-10-14T05:09:22.843Z,13.30
2022-10-14T05:11:51.081Z,13.40
2022-10-14T05:14:19.276Z,13.30
2022-10-14T05:16:47.378Z,13.20
2022-10-14T05:19:15.594Z,13.30
2022-10-14T05:21:43.730Z,13.30
2022-10-14T05:24:13.284Z,13.30
2022-10-14T05:26:41.357Z,13.30
2022-10-14T05:29:10.390Z,13.30
2022-10-14T05:31:38.541Z,13.30
2022-10-14T05:34:06.824Z,13.30
2022-10-14T05:36:34.931Z,13.30
2022-10-14T05:39:03.097Z,13.30
2022-10-14T05:41:32.802Z,13.30
2022-10-14T05:44:00.937Z,13.30
2022-10-14T05:46:29.045Z,13.30
2022-10-14T05:48:57.682Z,13.40
2022-10-14T05:51:26.305Z,13.40
2022-10-14T05:53:54.622Z,13.50
2022-10-14T05:56:22.773Z,13.40
2022-10-14T05:58:53.071Z,13.50
2022-10-14T06:01:22.114Z,13.50
2022-10-14T06:03:52.416Z,13.50
2022-10-14T06:06:23.251Z,13.50
2022-10-14T06:08:56.261Z,13.60
2022-10-14T06:11:24.413Z,13.50
2022-10-14T06:13:54.332Z,13.60
2022-10-14T06:16:22.467Z,13.60
2022-10-14T06:18:54.232Z,13.60
2022-10-14T06:21:22.978Z,13.60
2022-10-14T06:23:51.460Z,13.60
2022-10-14T06:26:19.675Z,13.70
2022-10-14T06:28:47.985Z,13.70
2022-10-14T06:31:20.910Z,13.80
2022-10-14T06:33:49.079Z,13.80
2022-10-14T06:36:17.190Z,13.80
2022-10-14T06:38:48.540Z,13.80
2022-10-14T06:41:16.646Z,13.90
2022-10-14T06:43:44.727Z,13.90
2022-10-14T06:46:12.813Z,14.00
2022-10-14T06:48:44.767Z,14.00
2022-10-14T06:51:14.971Z,14.10
2022-10-14T06:53:43.706Z,14.10
2022-10-14T06:56:12.662Z,14.10
2022-10-14T06:58:40.820Z,14.10
2022-10-14T07:01:09.658Z,14.10
2022-10-14T07:03:39.098Z,14.20
2022-10-14T07:06:09.999Z,14.20
2022-10-14T07:08:38.171Z,14.20
2022-10-14T07:11:06.961Z,14.20
2022-10-14T07:13:35.540Z,14.30
2022-10-14T07:16:03.732Z,14.20
2022-10-14T07:18:32.049Z,14.30
2022-10-14T07:21:03.841Z,14.30
2022-10-14T07:23:33.427Z,14.30
2022-10-14T07:26:01.876Z,14.30
2022-10-14T07:28:30.302Z,14.30
2022-10-14T07:31:00.288Z,14.30
2022-10-14T07:33:28.623Z,14.40
2022-10-14T07:35:56.804Z,14.50
2022-10-14T07:38:24.972Z,14.50
2022-10-14T07:41:02.261Z,14.40
2022-10-14T07:43:31.025Z,14.30
2022-10-14T07:46:02.763Z,14.40
2022-10-14T07:48:32.590Z,14.40
2022-10-14T07:51:12.979Z,14.40
2022-10-14T07:53:41.150Z,14.40
2022-10-14T07:56:10.687Z,14.50
2022-10-14T07:58:43.576Z,14.50
2022-10-14T08:01:12.609Z,14.60
2022-10-14T08:03:40.831Z,14.70
2022-10-14T08:06:09.359Z,14.70
2022-10-14T08:08:37.541Z,14.70
2022-10-14T08:11:08.974Z,14.70
2022-10-14T08:13:41.937Z,14.70
2022-10-14T08:16:15.755Z,14.70
2022-10-14T08:18:44.048Z,14.80
2022-10-14T08:21:12.358Z,14.80
2022-10-14T08:23:40.496Z,14.70
2022-10-14T08:26:19.784Z,14.80
2022-10-14T08:28:49.847Z,14.80
2022-10-14T08:31:18.493Z,14.90
2022-10-14T08:33:46.811Z,15.10
2022-10-14T08:36:15.416Z,15.20
2022-10-14T08:38:43.565Z,15.40
2022-10-14T08:41:26.589Z,15.40
2022-10-14T08:44:10.425Z,15.70
2022-10-14T08:46:41.728Z,15.80
2022-10-14T08:49:17.366Z,15.90
2022-10-14T08:51:49.950Z,16.10
2022-10-14T08:54:25.756Z,16.10
2022-10-14T08:56:54.476Z,16.10
2022-10-14T08:59:25.913Z,16.10
2022-10-14T09:01:58.655Z,16.10
2022-10-14T09:04:26.860Z,16.10
2022-10-14T09:06:56.741Z,16.10
2022-10-14T09:09:29.804Z,16.10
2022-10-14T09:12:01.174Z,16.00
2022-10-14T09:14:35.564Z,16.00
2022-10-14T09:17:08.568Z,16.10
2022-10-14T09:19:43.051Z,16.30
2022-10-14T09:22:14.537Z,16.30
2022-10-14T09:24:45.396Z,16.40
2022-10-14T09:27:17.196Z,16.40
2022-10-14T09:29:49.778Z,16.50
2022-10-14T09:32:29.555Z,16.60
2022-10-14T09:34:59.478Z,16.80
2022-10-14T09:37:29.603Z,16.80
2022-10-14T09:40:00.963Z,16.70
2022-10-14T09:42:37.384Z,16.80
2022-10-14T09:45:11.748Z,16.60
2022-10-14T09:47:49.309Z,16.70
2022-10-14T09:50:24.579Z,16.80
2022-10-14T09:52:59.993Z,16.80
2022-10-14T09:55:28.658Z,16.90
2022-10-14T09:58:08.914Z,17.10
2022-10-14T10:00:39.253Z,17.20
2022-10-14T10:03:09.933Z,17.30
2022-10-14T10:05:40.680Z,17.40
2022-10-14T10:08:17.769Z,17.60
2022-10-14T10:11:03.630Z,17.60
2022-10-14T10:13:41.598Z,17.30
2022-10-14T10:16:23.451Z,17.40
2022-10-14T10:18:52.871Z,17.50
2022-10-14T10:21:25.794Z,17.50
2022-10-14T10:23:57.229Z,17.80
2022-10-14T10:26:27.332Z,18.00
2022-10-14T10:28:58.056Z,18.10
2022-10-14T10:31:42.148Z,18.30
2022-10-14T10:34:40.529Z,18.30
2022-10-14T10:37:25.207Z,18.30
2022-10-14T10:40:09.670Z,18.20
2022-10-14T10:42:44.845Z,18.30
2022-10-14T10:45:17.962Z,18.20
2022-10-14T10:47:56.607Z,18.30
2022-10-14T10:50:33.952Z,18.40
2022-10-14T10:53:27.280Z,18.30
2022-10-14T10:56:06.062Z,18.10
2022-10-14T10:58:44.199Z,18.20
2022-10-14T11:01:26.274Z,18.20
2022-10-14T11:04:14.155Z,18.10
2022-10-14T11:07:01.480Z,18.10
2022-10-14T11:09:52.665Z,18.10
2022-10-14T11:12:25.989Z,18.10
2022-10-14T11:15:20.052Z,18.00
2022-10-14T11:17:52.489Z,18.00
2022-10-14T11:20:33.822Z,18.00
2022-10-14T11:23:21.544Z,18.00
2022-10-14T11:25:56.498Z,17.90
2022-10-14T11:28:33.120Z,17.70
2022-10-14T11:31:07.795Z,17.70
2022-10-14T11:33:55.390Z,17.80
2022-10-14T11:36:34.606Z,17.70
2022-10-14T11:39:28.723Z,17.80
2022-10-14T11:42:13.800Z,17.80
2022-10-14T11:44:43.505Z,17.80
2022-10-14T11:47:18.658Z,17.80
2022-10-14T11:49:53.895Z,17.90
2022-10-14T11:52:28.812Z,18.10
2022-10-14T11:55:02.911Z,17.90
2022-10-14T11:57:35.722Z,17.90
2022-10-14T12:00:06.506Z,18.10
2022-10-14T12:02:42.035Z,18.20
2022-10-14T12:05:17.991Z,18.30
2022-10-14T12:08:08.584Z,18.40
2022-10-14T12:10:42.825Z,18.40
2022-10-14T12:13:15.250Z,18.40
2022-10-14T12:15:48.332Z,18.40
2022-10-14T12:18:16.681Z,18.40
2022-10-14T12:20:50.393Z,18.40
2022-10-14T12:23:30.109Z,18.50
2022-10-14T12:26:04.885Z,18.60
2022-10-14T12:28:34.712Z,18.60
2022-10-14T12:31:23.302Z,18.60
2022-10-14T12:34:18.960Z,18.50
2022-10-14T12:36:50.706Z,18.70
2022-10-14T12:39:44.529Z,18.50
2022-10-14T12:42:15.795Z,18.30
2022-10-14T12:44:48.697Z,18.10
2022-10-14T12:47:21.011Z,17.90
2022-10-14T12:49:53.192Z,17.80
2022-10-14T12:52:24.890Z,17.60
2022-10-14T12:54:55.069Z,17.50
2022-10-14T12:57:30.648Z,17.50
2022-10-14T13:00:01.590Z,17.50
2022-10-14T13:02:35.774Z,17.50
2022-10-14T13:05:07.687Z,17.60
2022-10-14T13:07:47.366Z,17.60
2022-10-14T13:10:47.373Z,17.50
2022-10-14T13:14:01.426Z,17.50
2022-10-14T13:17:05.812Z,17.60
2022-10-14T13:19:47.393Z,17.60
2022-10-14T13:22:43.875Z,17.70
2022-10-14T13:25:18.571Z,17.50
2022-10-14T13:28:04.727Z,17.40
2022-10-14T13:30:44.659Z,17.30
2022-10-14T13:33:19.603Z,17.30
2022-10-14T13:36:00.147Z,17.30
2022-10-14T13:38:29.563Z,17.30
2022-10-14T13:40:59.302Z,17.20
2022-10-14T13:43:30.577Z,17.30
2022-10-14T13:46:05.675Z,17.30
2022-10-14T13:48:35.973Z,17.30
2022-10-14T13:51:36.080Z,17.30
2022-10-14T13:54:19.228Z,17.40
2022-10-14T13:57:38.291Z,17.50
2022-10-14T14:02:39.365Z,17.70
2022-10-14T14:05:15.522Z,17.80
2022-10-14T14:08:45.743Z,17.60
2022-10-14T14:10:34.561Z,17.50
2022-10-14T14:13:07.324Z,17.50
2022-10-14T14:15:37.945Z,17.50
2022-10-14T14:18:06.373Z,17.50
2022-10-14T14:20:35.468Z,17.50
2022-10-14T14:23:05.271Z,17.50
2022-10-14T14:25:35.458Z,17.40
2022-10-14T14:28:07.081Z,17.30
2022-10-14T14:30:38.682Z,17.30
2022-10-14T14:33:12.117Z,17.30
2022-10-14T14:35:41.269Z,17.30
2022-10-14T14:38:28.390Z,17.30
2022-10-14T14:41:07.438Z,17.20
2022-10-14T14:43:40.849Z,17.30
2022-10-14T14:46:20.871Z,17.30
2022-10-14T14:48:54.789Z,17.20
2022-10-14T14:51:23.739Z,17.30
2022-10-14T14:53:54.928Z,17.20
2022-10-14T14:56:27.775Z,17.20
2022-10-14T14:58:59.150Z,17.10
2022-10-14T15:01:30.594Z,17.30
2022-10-14T15:04:13.243Z,17.30
2022-10-14T15:06:51.139Z,17.30
2022-10-14T15:09:23.947Z,17.20
2022-10-14T15:11:54.779Z,17.20
2022-10-14T15:14:33.297Z,17.30
2022-10-14T15:17:05.652Z,17.30
2022-10-14T15:19:38.799Z,17.30
2022-10-14T15:22:28.677Z,17.30
2022-10-14T15:25:00.598Z,17.30
2022-10-14T15:27:43.008Z,17.30
2022-10-14T15:30:51.886Z,17.30
2022-10-14T15:33:23.639Z,17.30
2022-10-14T15:35:57.331Z,17.30
2022-10-14T15:38:26.418Z,17.30
2022-10-14T15:40:54.945Z,17.30
2022-10-14T15:43:24.671Z,17.20
2022-10-14T15:46:09.232Z,17.10
2022-10-14T15:48:40.093Z,17.00
2022-10-14T15:51:08.223Z,17.00
2022-10-14T15:53:36.538Z,17.00
2022-10-14T15:56:04.721Z,16.90
2022-10-14T15:58:33.725Z,16.80
2022-10-14T16:01:02.313Z,16.80
2022-10-14T16:03:34.785Z,16.60
2022-10-14T16:06:07.442Z,16.50
2022-10-14T16:08:35.673Z,16.40
2022-10-14T16:11:05.591Z,16.30
2022-10-14T16:13:33.685Z,16.30
2022-10-14T16:16:04.466Z,16.30
2022-10-14T16:18:32.567Z,16.10
2022-10-14T16:21:00.619Z,15.90
2022-10-14T16:23:33.327Z,15.90
2022-10-14T16:26:01.976Z,15.90
2022-10-14T16:28:30.282Z,15.90
2022-10-14T16:31:00.963Z,15.90
2022-10-14T16:33:29.266Z,15.90
2022-10-14T16:36:00.435Z,15.80
2022-10-14T16:38:29.961Z,15.80
2022-10-14T16:40:59.000Z,15.70
2022-10-14T16:43:28.495Z,15.60
2022-10-14T16:45:59.743Z,15.50
2022-10-14T16:48:28.037Z,15.40
2022-10-14T16:50:56.506Z,15.30
2022-10-14T16:53:44.914Z,15.30
2022-10-14T16:56:33.748Z,15.20
2022-10-14T16:59:02.378Z,15.10
2022-10-14T17:01:31.674Z,15.00
2022-10-14T17:04:00.096Z,15.00
2022-10-14T17:06:28.634Z,15.00
2022-10-14T17:08:57.559Z,15.00
2022-10-14T17:11:29.285Z,15.00
2022-10-14T17:13:58.807Z,15.00
2022-10-14T17:16:28.508Z,15.10
2022-10-14T17:18:56.884Z,15.00
2022-10-14T17:21:26.733Z,15.00
2022-10-14T17:23:54.977Z,14.80
2022-10-14T17:26:23.343Z,14.80
2022-10-14T17:28:53.521Z,14.70
2022-10-14T17:31:22.768Z,14.70
2022-10-14T17:33:51.424Z,14.70
2022-10-14T17:36:21.358Z,14.70
2022-10-14T17:38:51.242Z,14.80
2022-10-14T17:41:20.631Z,14.70
2022-10-14T17:43:50.412Z,14.80
2022-10-14T17:46:23.474Z,14.70
2022-10-14T17:48:53.288Z,14.70
2022-10-14T17:51:25.428Z,14.70
2022-10-14T17:53:55.062Z,14.70
2022-10-14T17:56:23.290Z,14.70
2022-10-14T17:58:54.265Z,14.80
2022-10-14T18:01:37.023Z,14.80
2022-10-14T18:04:12.074Z,14.70
2022-10-14T18:06:47.531Z,14.70
2022-10-14T18:09:23.551Z,14.70
2022-10-14T18:12:09.258Z,14.60
2022-10-14T18:14:38.324Z,14.60
2022-10-14T18:17:08.349Z,14.60
2022-10-14T18:19:36.507Z,14.60
2022-10-14T18:22:06.700Z,14.50
2022-10-14T18:24:38.469Z,14.50
2022-10-14T18:27:07.013Z,14.60
2022-10-14T18:29:35.143Z,14.60
2022-10-14T18:32:03.285Z,14.60
2022-10-14T18:34:33.296Z,14.60
2022-10-14T18:37:01.400Z,14.60
2022-10-14T18:39:29.637Z,14.60
2022-10-14T18:41:57.727Z,14.50
2022-10-14T18:44:25.846Z,14.60
2022-10-14T18:46:54.084Z,14.40
2022-10-14T18:49:22.218Z,14.40
2022-10-14T18:51:53.174Z,14.40
2022-10-14T18:54:23.766Z,14.40
2022-10-14T18:56:52.702Z,14.40
2022-10-14T18:59:23.151Z,14.50
2022-10-14T19:01:53.468Z,14.40
2022-10-14T19:04:24.450Z,14.40
2022-10-14T19:06:54.334Z,14.40
2022-10-14T19:09:29.001Z,14.40
2022-10-14T19:11:59.006Z,14.50
2022-10-14T19:14:28.689Z,14.50
2022-10-14T19:16:56.998Z,14.50
2022-10-14T19:19:25.352Z,14.40
2022-10-14T19:21:56.360Z,14.40
2022-10-14T19:24:24.464Z,14.50
2022-10-14T19:26:54.220Z,14.70
2022-10-14T19:29:24.712Z,14.90
2022-10-14T19:31:54.525Z,15.10
2022-10-14T19:34:26.669Z,15.20
2022-10-14T19:36:56.526Z,15.40
2022-10-14T19:39:24.699Z,15.60
2022-10-14T19:41:52.790Z,15.80
2022-10-14T19:44:21.060Z,15.90
2022-10-14T19:46:49.246Z,16.00
2022-10-14T19:49:17.656Z,16.10
2022-10-14T19:51:45.748Z,16.20
2022-10-14T19:54:16.298Z,16.20
2022-10-14T19:56:44.536Z,16.30
2022-10-14T19:59:13.594Z,16.30
2022-10-14T20:01:42.065Z,16.30
2022-10-14T20:04:10.243Z,16.30
2022-10-14T20:06:40.021Z,16.40
2022-10-14T20:09:08.957Z,16.40
2022-10-14T20:11:38.454Z,16.30
2022-10-14T20:14:06.576Z,16.40
2022-10-14T20:16:35.019Z,16.40
2022-10-14T20:19:03.130Z,16.40
2022-10-14T20:21:31.753Z,16.50
2022-10-14T20:24:00.587Z,16.50
2022-10-14T20:26:28.886Z,16.50
2022-10-14T20:28:58.420Z,16.50
2022-10-14T20:31:26.651Z,16.60
2022-10-14T20:33:56.987Z,16.70
2022-10-14T20:36:25.242Z,16.70
2022-10-14T20:38:53.491Z,16.70
2022-10-14T20:41:22.991Z,16.70
2022-10-14T20:43:51.460Z,16.60
2022-10-14T20:46:21.882Z,16.50
2022-10-14T20:48:54.090Z,16.50
2022-10-14T20:51:22.819Z,16.40
2022-10-14T20:53:51.228Z,16.40
2022-10-14T20:56:19.506Z,16.40
2022-10-14T20:58:47.618Z,16.40
2022-10-14T21:01:17.965Z,16.40
2022-10-14T21:03:48.293Z,16.40
2022-10-14T21:06:18.286Z,16.30
2022-10-14T21:08:46.788Z,16.30
2022-10-14T21:11:17.056Z,16.30
2022-10-14T21:13:47.014Z,16.30
2022-10-14T21:16:17.289Z,16.30
2022-10-14T21:18:55.133Z,16.40
2022-10-14T21:21:26.887Z,16.40
2022-10-14T21:23:55.180Z,16.40
2022-10-14T21:26:23.574Z,16.40
2022-10-14T21:28:51.782Z,16.30
2022-10-14T21:31:20.449Z,16.40
2022-10-14T21:33:54.913Z,16.40
2022-10-14T21:36:23.053Z,16.40
2022-10-14T21:38:51.203Z,16.40
2022-10-14T21:41:19.443Z,16.40
2022-10-14T21:43:47.603Z,16.30
2022-10-14T21:46:17.077Z,16.40
2022-10-14T21:48:46.123Z,16.40
2022-10-14T21:51:17.668Z,16.30
2022-10-14T21:53:46.983Z,16.40
2022-10-14T21:56:16.766Z,16.40
2022-10-14T21:58:45.131Z,16.40
2022-10-14T22:01:16.116Z,16.40
2022-10-14T22:03:45.140Z,16.40
2022-10-14T22:06:17.304Z,16.40
2022-10-14T22:08:47.058Z,16.40
2022-10-14T22:11:19.754Z,16.40
2022-10-14T22:13:48.001Z,16.40
2022-10-14T22:16:17.858Z,16.40
2022-10-14T22:18:46.861Z,16.40
2022-10-14T22:21:17.908Z,16.50
2022-10-14T22:23:46.788Z,16.50
2022-10-14T22:26:17.014Z,16.40
2022-10-14T22:28:45.210Z,16.40
2022-10-14T22:31:15.835Z,16.40
2022-10-14T22:33:44.574Z,16.30
2022-10-14T22:36:18.191Z,16.30
2022-10-14T22:38:51.424Z,16.30
2022-10-14T22:41:20.052Z,16.20
2022-10-14T22:43:49.283Z,16.20
2022-10-14T22:46:19.638Z,16.30
2022-10-14T22:48:47.897Z,16.30
2022-10-14T22:51:18.158Z,16.30
2022-10-14T22:53:47.414Z,16.30
2022-10-14T22:56:22.129Z,16.20
2022-10-14T22:58:53.333Z,16.30
2022-10-14T23:01:22.555Z,16.20
2022-10-14T23:03:51.288Z,16.20
2022-10-14T23:06:19.443Z,16.30
2022-10-14T23:08:47.572Z,16.30
2022-10-14T23:11:18.620Z,16.30
2022-10-14T23:13:47.457Z,16.20
2022-10-14T23:16:17.609Z,16.30
2022-10-14T23:18:46.916Z,16.30
2022-10-14T23:21:17.642Z,16.30
2022-10-14T23:23:47.402Z,16.20
2022-10-14T23:26:18.840Z,16.30
2022-10-14T23:28:50.259Z,16.30
2022-10-14T23:31:20.718Z,16.40
2022-10-14T23:33:49.322Z,16.50
2022-10-14T23:36:17.453Z,16.40
2022-10-14T23:38:46.531Z,16.30
2022-10-14T23:41:16.817Z,16.30
2022-10-14T23:43:44.954Z,16.30
2022-10-14T23:46:13.064Z,16.30
2022-10-14T23:48:41.402Z,16.30
2022-10-14T23:51:09.871Z,16.30
2022-10-14T23:53:37.937Z,16.20
2022-10-14T23:56:06.806Z,16.20
2022-10-14T23:58:36.343Z,16.20
